createdAt,value
2023-04-15T00:01:13.013Z,81.03
2023-04-15T00:03:40.867Z,81.11
2023-04-15T00:06:08.643Z,81.38
2023-04-15T00:08:36.168Z,81.69
2023-04-15T00:11:03.865Z,81.94
2023-04-15T00:13:34.317Z,82.35
2023-04-15T00:16:02.408Z,82.30
2023-04-15T00:18:30.158Z,82.33
2023-04-15T00:20:57.809Z,82.44
2023-04-15T00:23:25.757Z,82.68
2023-04-15T00:25:53.276Z,83.26
2023-04-15T00:28:20.855Z,83.74
2023-04-15T00:30:48.498Z,83.71
2023-04-15T00:33:16.072Z,83.57
2023-04-15T00:35:43.692Z,83.66
2023-04-15T00:38:11.486Z,84.04
2023-04-15T00:40:39.190Z,83.89
2023-04-15T00:43:06.901Z,84.43
2023-04-15T00:45:34.543Z,84.57
2023-04-15T00:48:02.418Z,84.91
2023-04-15T00:50:30.037Z,85.30
2023-04-15T00:52:57.601Z,85.82
2023-04-15T00:55:25.216Z,86.10
2023-04-15T00:57:52.909Z,85.91
2023-04-15T01:00:21.062Z,86.21
2023-04-15T01:02:49.195Z,86.14
2023-04-15T01:05:17.424Z,86.14
2023-04-15T01:07:44.981Z,86.27
2023-04-15T01:10:12.559Z,85.90
2023-04-15T01:12:40.539Z,85.69
2023-04-15T01:15:08.642Z,85.35
2023-04-15T01:17:36.460Z,85.86
2023-04-15T01:20:04.439Z,85.49
2023-04-15T01:22:34.289Z,85.16
2023-04-15T01:25:06.865Z,84.99
2023-04-15T01:27:35.611Z,84.92
2023-04-15T01:30:03.291Z,84.87
2023-04-15T01:32:30.962Z,84.96
2023-04-15T01:34:58.506Z,84.70
2023-04-15T01:37:26.216Z,84.47
2023-04-15T01:39:53.765Z,84.22
2023-04-15T01:42:21.702Z,83.97
2023-04-15T01:44:49.273Z,84.07
2023-04-15T01:47:16.841Z,84.21
2023-04-15T01:49:44.389Z,84.16
2023-04-15T01:52:11.954Z,84.05
2023-04-15T01:54:39.478Z,84.08
2023-04-15T01:57:07.031Z,84.07
2023-04-15T01:59:34.613Z,84.10
2023-04-15T02:02:02.176Z,84.08
2023-04-15T02:04:29.932Z,83.94
2023-04-15T02:06:57.455Z,84.15
2023-04-15T02:09:25.097Z,84.25
2023-04-15T02:11:52.765Z,84.42
2023-04-15T02:14:20.300Z,84.47
2023-04-15T02:16:47.946Z,84.76
2023-04-15T02:19:15.572Z,84.84
2023-04-15T02:21:43.154Z,84.92
2023-04-15T02:24:10.649Z,85.26
2023-04-15T02:26:38.185Z,85.70
2023-04-15T02:29:06.238Z,85.93
2023-04-15T02:31:33.829Z,85.83
2023-04-15T02:34:01.468Z,85.98
2023-04-15T02:36:28.998Z,85.85
2023-04-15T02:38:56.525Z,85.86
2023-04-15T02:41:24.058Z,85.96
2023-04-15T02:43:51.556Z,86.09
2023-04-15T02:46:19.128Z,86.34
2023-04-15T02:48:46.707Z,86.18
2023-04-15T02:51:14.693Z,86.04
2023-04-15T02:53:42.901Z,86.18
2023-04-15T02:56:10.452Z,86.15
2023-04-15T02:58:38.262Z,86.23
2023-04-15T03:04:46.460Z,86.47
2023-04-15T03:07:14.231Z,86.43
2023-04-15T03:09:41.779Z,86.72
2023-04-15T03:12:09.379Z,86.87
2023-04-15T03:14:36.993Z,87.05
2023-04-15T03:17:04.709Z,87.22
2023-04-15T03:19:32.310Z,87.40
2023-04-15T03:21:59.857Z,87.71
2023-04-15T03:24:27.496Z,87.79
2023-04-15T03:26:55.176Z,87.94
2023-04-15T03:29:22.818Z,88.00
2023-04-15T03:31:50.451Z,87.86
2023-04-15T03:34:18.078Z,87.89
2023-04-15T03:36:46.402Z,87.83
2023-04-15T03:39:14.055Z,87.67
2023-04-15T03:41:41.700Z,87.63
2023-04-15T03:44:09.383Z,87.72
2023-04-15T03:46:36.926Z,88.09
2023-04-15T03:49:06.951Z,88.32
2023-04-15T03:51:34.527Z,88.50
2023-04-15T03:54:02.062Z,88.42
2023-04-15T03:56:29.560Z,88.70
2023-04-15T03:58:57.107Z,88.67
2023-04-15T04:01:24.743Z,88.70
2023-04-15T04:03:52.477Z,88.56
2023-04-15T04:06:20.268Z,88.59
2023-04-15T04:08:47.785Z,88.62
2023-04-15T04:11:15.322Z,88.83
2023-04-15T04:13:42.837Z,89.01
2023-04-15T04:16:10.523Z,89.27
2023-04-15T04:18:38.124Z,89.60
2023-04-15T04:21:05.960Z,89.59
2023-04-15T04:23:33.557Z,89.38
2023-04-15T04:26:01.116Z,89.49
2023-04-15T04:28:28.675Z,89.78
2023-04-15T04:30:56.371Z,89.87
2023-04-15T04:33:24.004Z,90.00
2023-04-15T04:35:51.566Z,89.92
2023-04-15T04:38:19.086Z,89.64
2023-04-15T04:40:46.673Z,89.64
2023-04-15T04:43:14.272Z,89.51
2023-04-15T04:45:41.927Z,89.42
2023-04-15T04:48:09.452Z,89.22
2023-04-15T04:50:37.340Z,89.08
2023-04-15T04:53:04.952Z,88.93
2023-04-15T04:55:32.487Z,89.03
2023-04-15T04:58:00.184Z,88.84
2023-04-15T05:00:27.690Z,88.44
2023-04-15T05:02:55.469Z,88.51
2023-04-15T05:05:23.199Z,88.50
2023-04-15T05:07:50.849Z,88.38
2023-04-15T05:10:18.462Z,88.07
2023-04-15T05:12:46.014Z,87.91
2023-04-15T05:15:13.621Z,87.71
2023-04-15T05:17:41.222Z,87.43
2023-04-15T05:20:09.097Z,87.28
2023-04-15T05:22:36.998Z,86.98
2023-04-15T05:25:04.988Z,86.86
2023-04-15T05:27:32.569Z,86.52
2023-04-15T05:30:00.173Z,86.20
2023-04-15T05:32:27.734Z,85.88
2023-04-15T05:34:55.297Z,85.48
2023-04-15T05:37:22.807Z,85.06
2023-04-15T05:39:50.357Z,84.85
2023-04-15T05:42:17.911Z,84.29
2023-04-15T05:44:45.470Z,83.79
2023-04-15T05:47:13.022Z,83.46
2023-04-15T05:49:40.605Z,82.78
2023-04-15T05:52:08.111Z,81.78
2023-04-15T05:54:35.622Z,80.85
2023-04-15T05:57:03.254Z,79.71
2023-04-15T05:59:30.754Z,78.93
2023-04-15T06:01:58.331Z,78.31
2023-04-15T06:04:26.050Z,77.55
2023-04-15T06:06:53.776Z,76.71
2023-04-15T06:09:21.368Z,76.58
2023-04-15T06:11:48.874Z,75.84
2023-04-15T06:14:16.413Z,75.53
2023-04-15T06:16:44.098Z,74.20
2023-04-15T06:19:11.667Z,73.15
2023-04-15T06:21:39.234Z,73.27
2023-04-15T06:24:07.016Z,70.27
2023-04-15T06:26:34.595Z,70.96
2023-04-15T06:29:02.310Z,71.47
2023-04-15T06:31:30.405Z,71.31
2023-04-15T06:33:57.971Z,71.29
2023-04-15T06:36:25.508Z,70.90
2023-04-15T06:38:53.030Z,68.89
2023-04-15T06:41:20.599Z,68.14
2023-04-15T06:43:48.213Z,68.77
2023-04-15T06:46:15.819Z,68.11
2023-04-15T06:48:43.433Z,68.34
2023-04-15T06:51:10.958Z,68.83
2023-04-15T06:53:38.534Z,68.77
2023-04-15T06:56:07.774Z,65.73
2023-04-15T06:58:35.388Z,65.06
2023-04-15T07:01:03.048Z,64.94
2023-04-15T07:03:32.636Z,65.47
2023-04-15T07:06:00.517Z,64.92
2023-04-15T07:08:28.028Z,64.29
2023-04-15T07:10:55.546Z,64.20
2023-04-15T07:13:23.113Z,62.41
2023-04-15T07:15:50.658Z,62.43
2023-04-15T07:18:18.196Z,61.47
2023-04-15T07:20:45.755Z,62.47
2023-04-15T07:23:13.286Z,62.61
2023-04-15T07:25:40.861Z,61.33
2023-04-15T07:28:08.408Z,62.03
2023-04-15T07:30:36.040Z,60.95
2023-04-15T07:33:03.846Z,59.85
2023-04-15T07:35:31.516Z,60.15
2023-04-15T07:37:59.034Z,59.91
2023-04-15T07:40:26.668Z,59.63
2023-04-15T07:42:54.481Z,58.01
2023-04-15T07:45:22.005Z,57.81
2023-04-15T07:47:49.681Z,58.34
2023-04-15T07:50:17.541Z,57.20
2023-04-15T07:52:45.203Z,54.95
2023-04-15T07:55:13.313Z,55.86
2023-04-15T07:57:40.817Z,56.22
2023-04-15T08:00:08.922Z,57.09
2023-04-15T08:02:38.192Z,56.80
2023-04-15T08:05:07.828Z,56.06
2023-04-15T08:07:37.469Z,55.10
2023-04-15T08:10:05.797Z,52.64
2023-04-15T08:12:33.355Z,53.07
2023-04-15T08:15:00.923Z,53.82
2023-04-15T08:17:28.521Z,53.60
2023-04-15T08:19:56.154Z,53.72
2023-04-15T08:22:23.670Z,53.52
2023-04-15T08:24:51.255Z,52.89
2023-04-15T08:27:19.137Z,49.98
2023-04-15T08:29:46.696Z,48.85
2023-04-15T08:32:14.382Z,47.31
2023-04-15T08:34:42.073Z,47.06
2023-04-15T08:37:10.845Z,48.28
2023-04-15T08:39:39.069Z,46.51
2023-04-15T08:42:12.733Z,47.22
2023-04-15T08:44:40.788Z,45.41
2023-04-15T08:47:09.086Z,44.39
2023-04-15T08:49:40.065Z,42.25
2023-04-15T08:52:09.186Z,43.19
2023-04-15T08:54:37.894Z,43.70
2023-04-15T08:57:06.286Z,42.77
2023-04-15T08:59:33.886Z,42.61
2023-04-15T09:02:02.657Z,43.53
2023-04-15T09:04:30.373Z,41.23
2023-04-15T09:06:57.929Z,42.17
2023-04-15T09:09:25.505Z,42.45
2023-04-15T09:11:53.120Z,40.32
2023-04-15T09:14:20.624Z,41.26
2023-04-15T09:16:57.868Z,38.01
2023-04-15T09:19:25.650Z,36.56
2023-04-15T09:21:58.910Z,38.33
2023-04-15T09:24:36.448Z,39.26
2023-04-15T09:27:04.439Z,39.97
2023-04-15T09:29:32.073Z,39.56
2023-04-15T09:32:13.687Z,40.41
2023-04-15T09:34:41.281Z,39.45
2023-04-15T09:37:08.817Z,39.69
2023-04-15T09:39:46.930Z,39.72
2023-04-15T09:42:14.533Z,40.02
2023-04-15T09:44:42.092Z,39.78
2023-04-15T09:47:09.649Z,39.03
2023-04-15T09:49:37.247Z,39.24
2023-04-15T09:52:06.455Z,39.47
2023-04-15T09:54:38.482Z,39.49
2023-04-15T09:57:08.149Z,40.08
2023-04-15T09:59:36.026Z,40.59
2023-04-15T10:02:06.442Z,40.77
2023-04-15T10:04:40.765Z,40.65
2023-04-15T10:07:12.293Z,38.95
2023-04-15T10:09:40.500Z,38.73
2023-04-15T10:12:08.992Z,38.95
2023-04-15T10:14:38.872Z,38.82
2023-04-15T10:17:08.050Z,37.58
2023-04-15T10:19:37.493Z,38.48
2023-04-15T10:22:06.287Z,38.90
2023-04-15T10:24:34.209Z,38.13
2023-04-15T10:27:03.660Z,37.63
2023-04-15T10:29:31.478Z,37.51
2023-04-15T10:31:59.911Z,37.21
2023-04-15T10:34:27.945Z,36.41
2023-04-15T10:36:56.722Z,36.24
2023-04-15T10:39:33.524Z,36.07
2023-04-15T10:42:19.733Z,36.23
2023-04-15T10:44:51.455Z,36.24
2023-04-15T10:47:21.468Z,35.86
2023-04-15T10:49:57.877Z,36.44
2023-04-15T10:52:27.552Z,36.15
2023-04-15T10:55:18.880Z,37.06
2023-04-15T10:57:46.486Z,37.24
2023-04-15T11:00:15.785Z,36.87
2023-04-15T11:02:54.095Z,37.68
2023-04-15T11:05:42.777Z,37.90
2023-04-15T11:08:11.643Z,37.71
2023-04-15T11:10:39.138Z,38.07
2023-04-15T11:13:09.634Z,37.87
2023-04-15T11:15:39.820Z,36.95
2023-04-15T11:18:19.236Z,36.21
2023-04-15T11:20:59.128Z,36.02
2023-04-15T11:23:32.473Z,35.67
2023-04-15T11:26:01.853Z,36.41
2023-04-15T11:28:31.202Z,35.70
2023-04-15T11:31:05.565Z,35.69
2023-04-15T11:33:33.140Z,36.05
2023-04-15T11:36:01.225Z,36.55
2023-04-15T11:38:29.052Z,36.50
2023-04-15T11:40:57.005Z,37.34
2023-04-15T11:43:24.656Z,37.57
2023-04-15T11:46:00.380Z,37.19
2023-04-15T11:48:30.162Z,37.18
2023-04-15T11:51:02.741Z,38.07
2023-04-15T11:53:56.645Z,38.11
2023-04-15T11:56:26.341Z,38.42
2023-04-15T11:58:56.985Z,38.38
2023-04-15T12:01:35.989Z,38.69
2023-04-15T12:04:11.621Z,39.05
2023-04-15T12:06:39.354Z,39.26
2023-04-15T12:09:06.984Z,39.30
2023-04-15T12:11:45.057Z,38.64
2023-04-15T12:14:15.874Z,35.58
2023-04-15T12:16:49.775Z,34.20
2023-04-15T12:19:24.691Z,32.15
2023-04-15T12:21:58.266Z,30.33
2023-04-15T12:24:28.265Z,29.55
2023-04-15T12:27:01.945Z,29.46
2023-04-15T12:29:31.101Z,28.77
2023-04-15T12:32:04.740Z,27.00
2023-04-15T12:34:37.384Z,26.43
2023-04-15T12:37:07.275Z,26.25
2023-04-15T12:39:39.805Z,25.35
2023-04-15T12:42:08.493Z,24.77
2023-04-15T12:44:37.236Z,26.10
2023-04-15T12:47:05.116Z,26.22
2023-04-15T12:49:33.107Z,26.29
2023-04-15T12:52:02.515Z,26.90
2023-04-15T12:54:31.057Z,28.01
2023-04-15T12:56:59.651Z,28.98
2023-04-15T12:59:28.617Z,29.34
2023-04-15T13:01:56.284Z,29.12
2023-04-15T13:04:24.131Z,27.42
2023-04-15T13:06:51.764Z,25.20
2023-04-15T13:09:19.473Z,22.77
2023-04-15T13:11:47.064Z,19.95
2023-04-15T13:14:14.579Z,18.20
2023-04-15T13:16:42.155Z,17.10
2023-04-15T13:19:09.701Z,16.34
2023-04-15T13:21:37.211Z,15.58
2023-04-15T13:24:05.185Z,14.67
2023-04-15T13:26:32.871Z,14.24
2023-04-15T13:29:00.890Z,13.39
2023-04-15T13:31:28.678Z,13.54
2023-04-15T13:33:57.611Z,14.06
2023-04-15T13:36:25.271Z,15.13
2023-04-15T13:38:52.846Z,15.02
2023-04-15T13:41:20.379Z,15.23
2023-04-15T13:43:47.953Z,14.67
2023-04-15T13:46:15.964Z,16.16
2023-04-15T13:48:43.584Z,16.18
2023-04-15T13:51:11.278Z,16.41
2023-04-15T13:53:39.762Z,15.13
2023-04-15T13:56:08.354Z,14.82
2023-04-15T13:58:37.226Z,16.24
2023-04-15T14:01:06.463Z,17.30
2023-04-15T14:03:35.359Z,18.38
2023-04-15T14:06:03.097Z,20.12
2023-04-15T14:08:30.660Z,21.79
2023-04-15T14:10:58.256Z,22.57
2023-04-15T14:13:25.893Z,23.68
2023-04-15T14:15:53.564Z,25.53
2023-04-15T14:18:21.219Z,26.78
2023-04-15T14:20:48.808Z,27.83
2023-04-15T14:23:16.339Z,28.87
2023-04-15T14:25:45.067Z,29.69
2023-04-15T14:28:14.623Z,30.54
2023-04-15T14:30:42.434Z,30.54
2023-04-15T14:33:10.089Z,30.95
2023-04-15T14:35:37.837Z,31.73
2023-04-15T14:38:05.466Z,32.32
2023-04-15T14:40:33.629Z,32.39
2023-04-15T14:43:01.182Z,32.21
2023-04-15T14:45:30.395Z,31.88
2023-04-15T14:47:59.341Z,32.06
2023-04-15T14:50:26.960Z,31.80
2023-04-15T14:52:54.465Z,30.47
2023-04-15T14:55:22.110Z,27.32
2023-04-15T14:57:49.737Z,24.83
2023-04-15T15:00:17.459Z,23.35
2023-04-15T15:02:45.139Z,20.71
2023-04-15T15:05:13.024Z,18.65
2023-04-15T15:07:40.748Z,17.55
2023-04-15T15:10:08.996Z,16.98
2023-04-15T15:12:36.605Z,17.81
2023-04-15T15:15:09.208Z,18.09
2023-04-15T15:17:43.661Z,19.13
2023-04-15T15:20:11.481Z,20.05
2023-04-15T15:22:39.014Z,21.25
2023-04-15T15:25:06.795Z,21.92
2023-04-15T15:27:35.487Z,21.73
2023-04-15T15:30:05.085Z,21.30
2023-04-15T15:32:32.687Z,19.56
2023-04-15T15:35:00.272Z,19.41
2023-04-15T15:37:28.032Z,18.90
2023-04-15T15:39:55.544Z,19.50
2023-04-15T15:42:23.263Z,20.02
2023-04-15T15:44:50.838Z,20.99
2023-04-15T15:47:19.160Z,21.76
2023-04-15T15:49:46.758Z,22.75
2023-04-15T15:52:14.375Z,24.05
2023-04-15T15:54:41.928Z,25.20
2023-04-15T15:57:09.493Z,26.18
2023-04-15T15:59:37.046Z,27.32
2023-04-15T16:02:04.802Z,28.40
2023-04-15T16:04:32.668Z,29.33
2023-04-15T16:07:00.421Z,30.27
2023-04-15T16:09:27.964Z,31.09
2023-04-15T16:11:55.617Z,31.78
2023-04-15T16:14:24.172Z,32.39
2023-04-15T16:16:52.626Z,33.02
2023-04-15T16:19:21.245Z,33.88
2023-04-15T16:21:48.865Z,34.46
2023-04-15T16:24:16.420Z,33.66
2023-04-15T16:26:43.933Z,32.74
2023-04-15T16:29:11.470Z,32.82
2023-04-15T16:31:39.152Z,33.28
2023-04-15T16:34:07.084Z,34.26
2023-04-15T16:36:35.220Z,35.30
2023-04-15T16:39:03.060Z,36.25
2023-04-15T16:41:32.604Z,37.15
2023-04-15T16:44:02.084Z,37.79
2023-04-15T16:46:29.848Z,38.83
2023-04-15T16:48:57.435Z,41.16
2023-04-15T16:51:25.001Z,44.70
2023-04-15T16:53:53.035Z,46.57
2023-04-15T16:56:20.605Z,49.32
2023-04-15T16:58:48.157Z,51.43
2023-04-15T17:01:15.762Z,53.66
2023-04-15T17:03:43.737Z,60.50
2023-04-15T17:06:11.652Z,63.58
2023-04-15T17:08:39.331Z,66.47
2023-04-15T17:11:07.256Z,68.96
2023-04-15T17:13:34.860Z,71.94
2023-04-15T17:16:02.651Z,73.89
2023-04-15T17:18:30.280Z,76.59
2023-04-15T17:20:57.939Z,77.67
2023-04-15T17:23:25.991Z,78.08
2023-04-15T17:25:53.710Z,79.03
2023-04-15T17:28:21.328Z,79.45
2023-04-15T17:30:49.009Z,79.58
2023-04-15T17:33:57.504Z,79.40
2023-04-15T17:36:04.870Z,79.41
2023-04-15T17:38:32.525Z,79.35
2023-04-15T17:41:00.146Z,79.26
2023-04-15T17:43:27.701Z,79.31
2023-04-15T17:45:56.542Z,79.50
2023-04-15T17:48:25.641Z,79.58
2023-04-15T17:50:53.222Z,79.71
2023-04-15T17:53:20.852Z,79.92
2023-04-15T17:55:48.396Z,80.04
2023-04-15T17:58:16.137Z,79.98
2023-04-15T18:00:43.693Z,79.93
2023-04-15T18:03:11.548Z,79.79
2023-04-15T18:05:41.365Z,79.61
2023-04-15T18:08:10.514Z,79.96
2023-04-15T18:10:39.270Z,79.32
2023-04-15T18:13:07.166Z,79.36
2023-04-15T18:15:35.078Z,79.63
2023-04-15T18:18:02.803Z,80.08
2023-04-15T18:20:30.381Z,80.16
2023-04-15T18:22:58.224Z,80.52
2023-04-15T18:25:25.943Z,81.17
2023-04-15T18:27:54.912Z,81.56
2023-04-15T18:30:22.961Z,81.60
2023-04-15T18:32:50.871Z,81.41
2023-04-15T18:35:18.784Z,81.18
2023-04-15T18:37:46.338Z,80.86
2023-04-15T18:40:13.950Z,81.09
2023-04-15T18:42:41.600Z,81.08
2023-04-15T18:45:09.550Z,81.59
2023-04-15T18:47:37.458Z,81.92
2023-04-15T18:50:05.888Z,81.99
2023-04-15T18:52:33.592Z,81.34
2023-04-15T18:55:01.248Z,81.61
2023-04-15T18:57:34.791Z,82.05
2023-04-15T19:00:03.367Z,82.66
2023-04-15T19:02:31.143Z,82.57
2023-04-15T19:04:59.382Z,82.36
2023-04-15T19:07:26.978Z,82.57
2023-04-15T19:09:54.556Z,83.25
2023-04-15T19:12:22.391Z,83.12
2023-04-15T19:14:50.325Z,83.35
2023-04-15T19:17:17.980Z,83.41
2023-04-15T19:19:45.543Z,83.54
2023-04-15T19:22:13.395Z,83.45
2023-04-15T19:24:41.250Z,83.22
2023-04-15T19:27:09.163Z,83.47
2023-04-15T19:29:37.126Z,83.57
2023-04-15T19:32:04.956Z,83.51
2023-04-15T19:34:32.855Z,83.50
2023-04-15T19:37:00.688Z,83.16
2023-04-15T19:39:28.263Z,83.43
2023-04-15T19:41:55.894Z,83.39
2023-04-15T19:44:23.430Z,83.57
2023-04-15T19:46:52.452Z,83.85
2023-04-15T19:49:20.308Z,83.73
2023-04-15T19:51:49.390Z,83.57
2023-04-15T19:54:16.976Z,83.74
2023-04-15T19:56:44.550Z,83.74
2023-04-15T19:59:12.175Z,83.78
2023-04-15T20:01:39.734Z,83.47
2023-04-15T20:04:07.500Z,83.51
2023-04-15T20:06:35.213Z,83.21
2023-04-15T20:09:03.418Z,83.34
2023-04-15T20:12:05.122Z,83.48
2023-04-15T20:14:18.929Z,83.97
2023-04-15T20:16:46.579Z,84.41
2023-04-15T20:19:14.271Z,84.82
2023-04-15T20:21:42.092Z,84.84
2023-04-15T20:24:09.932Z,84.87
2023-04-15T20:26:37.571Z,84.67
2023-04-15T20:29:05.460Z,84.46
2023-04-15T20:31:33.229Z,84.42
2023-04-15T20:34:00.821Z,84.49
2023-04-15T20:36:28.372Z,84.52
2023-04-15T20:38:55.879Z,84.44
2023-04-15T20:41:23.426Z,84.56
2023-04-15T20:43:51.037Z,84.75
2023-04-15T20:46:21.554Z,85.04
2023-04-15T20:48:49.325Z,85.66
2023-04-15T20:51:16.914Z,86.18
2023-04-15T20:53:44.461Z,86.41
2023-04-15T20:56:12.027Z,86.81
2023-04-15T20:58:39.596Z,87.29
2023-04-15T21:01:07.416Z,87.28
2023-04-15T21:03:35.180Z,87.47
2023-04-15T21:06:02.885Z,87.83
2023-04-15T21:08:30.424Z,87.72
2023-04-15T21:10:58.067Z,87.48
2023-04-15T21:13:25.653Z,87.50
2023-04-15T21:15:53.195Z,87.66
2023-04-15T21:18:22.019Z,87.25
2023-04-15T21:20:57.546Z,87.49
2023-04-15T21:23:26.392Z,87.58
2023-04-15T21:25:54.027Z,87.42
2023-04-15T21:28:22.241Z,87.54
2023-04-15T21:30:49.917Z,89.07
2023-04-15T21:33:17.939Z,88.74
2023-04-15T21:35:45.562Z,88.62
2023-04-15T21:38:13.162Z,89.37
2023-04-15T21:40:40.927Z,89.65
2023-04-15T21:43:08.716Z,89.57
2023-04-15T21:45:36.597Z,89.86
2023-04-15T21:48:07.834Z,89.77
2023-04-15T21:50:37.267Z,89.68
2023-04-15T21:53:07.665Z,89.39
2023-04-15T21:55:35.624Z,89.34
2023-04-15T21:58:03.223Z,89.13
2023-04-15T22:00:30.727Z,88.87
2023-04-15T22:02:58.374Z,89.26
2023-04-15T22:05:26.005Z,90.04
2023-04-15T22:07:53.517Z,90.46
2023-04-15T22:10:21.145Z,90.31
2023-04-15T22:12:48.692Z,90.56
2023-04-15T22:15:16.239Z,90.70
2023-04-15T22:17:43.775Z,90.87
2023-04-15T22:20:11.344Z,91.07
2023-04-15T22:22:44.173Z,91.84
2023-04-15T22:25:12.374Z,92.28
2023-04-15T22:27:39.928Z,92.45
2023-04-15T22:30:08.265Z,92.31
2023-04-15T22:32:36.016Z,92.14
2023-04-15T22:35:03.976Z,91.88
2023-04-15T22:37:31.588Z,91.61
2023-04-15T22:39:59.301Z,91.39
2023-04-15T22:42:27.302Z,91.46
2023-04-15T22:44:54.857Z,91.39
2023-04-15T22:47:22.437Z,91.41
2023-04-15T22:49:49.950Z,91.65
2023-04-15T22:52:27.195Z,91.87
2023-04-15T22:54:57.476Z,91.66
2023-04-15T22:57:25.092Z,91.98
2023-04-15T22:59:52.662Z,92.05
2023-04-15T23:02:20.322Z,91.98
2023-04-15T23:04:48.193Z,91.93
2023-04-15T23:07:15.782Z,91.65
2023-04-15T23:09:43.348Z,91.63
2023-04-15T23:12:11.008Z,91.41
2023-04-15T23:14:38.565Z,91.17
2023-04-15T23:17:06.252Z,91.08
2023-04-15T23:19:33.828Z,90.93
2023-04-15T23:22:01.443Z,90.94
2023-04-15T23:24:29.008Z,90.94
2023-04-15T23:26:56.545Z,90.56
2023-04-15T23:29:24.118Z,90.57
2023-04-15T23:31:51.648Z,90.54
2023-04-15T23:34:19.327Z,90.50
2023-04-15T23:36:46.881Z,90.56
2023-04-15T23:39:14.497Z,90.83
2023-04-15T23:41:42.091Z,91.07
2023-04-15T23:44:09.689Z,90.91
2023-04-15T23:46:37.305Z,91.00
2023-04-15T23:49:04.893Z,91.20
2023-04-15T23:51:32.448Z,91.39
2023-04-15T23:54:00.056Z,91.29
2023-04-15T23:56:27.638Z,91.49
2023-04-15T23:58:55.196Z,91.87
